createdAt,value
2018-10-12T00:00:47.500Z,101524.59
2018-10-12T00:03:15.188Z,101529.42
2018-10-12T00:05:43.184Z,101526.73
2018-10-12T00:08:10.806Z,101537.70
2018-10-12T00:10:38.484Z,101539.42
2018-10-12T00:13:06.121Z,101533.72
2018-10-12T00:15:33.770Z,101535.88
2018-10-12T00:18:01.402Z,101538.08
2018-10-12T00:20:29.261Z,101540.30
2018-10-12T00:22:56.916Z,101544.23
2018-10-12T00:25:24.576Z,101539.42
2018-10-12T00:27:52.208Z,101539.42
2018-10-12T00:30:19.923Z,101534.19
2018-10-12T00:32:47.583Z,101537.70
2018-10-12T00:35:15.195Z,101541.70
2018-10-12T00:37:43.090Z,101546.03
2018-10-12T00:40:10.776Z,101546.01
2018-10-12T00:42:38.413Z,101544.25
2018-10-12T00:45:06.074Z,101545.54
2018-10-12T00:47:33.767Z,101548.17
2018-10-12T00:50:01.590Z,101558.71
2018-10-12T00:52:29.300Z,101563.09
2018-10-12T00:54:57.145Z,101566.17
2018-10-12T00:57:24.917Z,101568.80
2018-10-12T00:59:52.661Z,101570.56
2018-10-12T01:02:20.312Z,101561.78
2018-10-12T01:04:47.968Z,101565.30
2018-10-12T01:07:15.600Z,101579.78
2018-10-12T01:09:43.271Z,101585.45
2018-10-12T01:12:47.636Z,101578.87
2018-10-12T01:15:15.333Z,101574.92
2018-10-12T01:17:42.957Z,101567.02
2018-10-12T01:20:10.692Z,101568.39
2018-10-12T01:22:38.376Z,101567.48
2018-10-12T01:25:06.839Z,101569.73
2018-10-12T01:27:34.550Z,101567.19
2018-10-12T01:30:02.998Z,101572.02
2018-10-12T01:32:36.235Z,101577.28
2018-10-12T01:35:03.872Z,101578.19
2018-10-12T01:37:31.455Z,101573.42
2018-10-12T01:39:59.068Z,101568.19
2018-10-12T01:42:26.664Z,101573.86
2018-10-12T01:44:54.295Z,101574.77
2018-10-12T01:47:21.967Z,101577.41
2018-10-12T01:49:49.647Z,101578.74
2018-10-12T01:52:17.279Z,101584.02
2018-10-12T01:54:44.892Z,101579.24
2018-10-12T01:57:13.051Z,101578.77
2018-10-12T01:59:40.665Z,101574.39
2018-10-12T02:02:08.321Z,101572.66
2018-10-12T02:04:35.921Z,101578.77
2018-10-12T02:07:04.227Z,101583.66
2018-10-12T02:09:31.820Z,101588.04
2018-10-12T02:11:59.574Z,101577.51
2018-10-12T02:14:27.686Z,101579.24
2018-10-12T02:16:55.295Z,101587.58
2018-10-12T02:19:22.989Z,101595.91
2018-10-12T02:21:50.620Z,101591.12
2018-10-12T02:24:18.210Z,101582.37
2018-10-12T02:26:45.818Z,101583.68
2018-10-12T02:29:13.471Z,101585.00
2018-10-12T02:31:41.607Z,101587.66
2018-10-12T02:34:09.252Z,101588.12
2018-10-12T02:36:37.268Z,101598.66
2018-10-12T02:39:07.805Z,101587.27
2018-10-12T02:41:35.435Z,101598.69
2018-10-12T02:44:03.113Z,101593.39
2018-10-12T02:46:30.739Z,101594.71
2018-10-12T02:48:58.380Z,101599.50
2018-10-12T02:51:26.032Z,101594.30
2018-10-12T02:53:53.679Z,101595.64
2018-10-12T02:56:22.546Z,101598.71
2018-10-12T02:58:51.203Z,101596.98
2018-10-12T03:01:19.570Z,101590.84
2018-10-12T03:03:47.200Z,101588.23
2018-10-12T03:06:15.242Z,101586.05
2018-10-12T03:08:42.882Z,101582.03
2018-10-12T03:11:10.615Z,101583.80
2018-10-12T03:13:38.583Z,101587.27
2018-10-12T03:16:06.277Z,101576.74
2018-10-12T03:18:34.015Z,101578.06
2018-10-12T03:21:01.643Z,101570.64
2018-10-12T03:23:29.394Z,101565.39
2018-10-12T03:25:57.096Z,101565.45
2018-10-12T03:28:32.963Z,101569.83
2018-10-12T03:31:01.232Z,101568.10
2018-10-12T03:33:29.319Z,101578.64
2018-10-12T03:35:57.537Z,101575.16
2018-10-12T03:38:25.126Z,101580.86
2018-10-12T03:40:52.696Z,101585.70
2018-10-12T03:43:20.319Z,101592.27
2018-10-12T03:45:47.962Z,101596.67
2018-10-12T03:48:15.564Z,101601.94
2018-10-12T03:50:43.233Z,101600.19
2018-10-12T03:53:11.434Z,101596.23
2018-10-12T03:55:39.383Z,101600.19
2018-10-12T03:58:07.290Z,101603.23
2018-10-12T04:00:34.935Z,101598.38
2018-10-12T04:03:02.591Z,101597.06
2018-10-12T04:05:30.224Z,101600.21
2018-10-12T04:07:57.871Z,101608.13
2018-10-12T04:10:25.632Z,101623.10
2018-10-12T04:12:53.493Z,101625.23
2018-10-12T04:15:21.115Z,101632.72
2018-10-12T04:17:48.834Z,101643.66
2018-10-12T04:20:16.409Z,101630.91
2018-10-12T04:22:44.042Z,101635.72
2018-10-12T04:25:11.685Z,101634.81
2018-10-12T04:27:39.283Z,101633.50
2018-10-12T04:30:07.124Z,101631.36
2018-10-12T04:32:34.792Z,101631.77
2018-10-12T04:35:02.419Z,101629.19
2018-10-12T04:37:29.996Z,101627.89
2018-10-12T04:40:04.607Z,101635.77
2018-10-12T04:42:32.282Z,101634.40
2018-10-12T04:45:00.409Z,101634.81
2018-10-12T04:47:30.194Z,101639.25
2018-10-12T04:49:59.312Z,101642.76
2018-10-12T04:52:28.490Z,101640.21
2018-10-12T04:54:56.331Z,101643.33
2018-10-12T04:57:23.983Z,101652.62
2018-10-12T04:59:51.659Z,101659.24
2018-10-12T05:02:19.578Z,101663.30
2018-10-12T05:04:47.215Z,101660.70
2018-10-12T05:07:14.877Z,101663.36
2018-10-12T05:09:42.504Z,101673.00
2018-10-12T05:12:10.175Z,101679.64
2018-10-12T05:14:37.835Z,101681.82
2018-10-12T05:17:05.568Z,101688.87
2018-10-12T05:19:33.192Z,101699.80
2018-10-12T05:22:00.877Z,101712.45
2018-10-12T05:24:28.614Z,101719.01
2018-10-12T05:26:56.232Z,101721.59
2018-10-12T05:29:23.987Z,101725.13
2018-10-12T05:31:51.628Z,101732.95
2018-10-12T05:34:19.309Z,101731.17
2018-10-12T05:36:46.984Z,101735.05
2018-10-12T05:39:15.136Z,101725.84
2018-10-12T05:41:42.982Z,101742.09
2018-10-12T05:44:10.635Z,101745.14
2018-10-12T05:46:38.530Z,101742.94
2018-10-12T05:49:17.508Z,101741.63
2018-10-12T05:51:45.172Z,101752.97
2018-10-12T05:54:13.232Z,101755.16
2018-10-12T05:56:41.731Z,101752.52
2018-10-12T05:59:09.358Z,101756.47
2018-10-12T06:01:37.058Z,101761.28
2018-10-12T06:04:05.283Z,101776.58
2018-10-12T06:06:32.919Z,101766.95
2018-10-12T06:09:00.539Z,101762.59
2018-10-12T06:11:28.263Z,101773.53
2018-10-12T06:13:55.869Z,101772.63
2018-10-12T06:16:23.595Z,101769.98
2018-10-12T06:18:51.273Z,101777.44
2018-10-12T06:21:18.832Z,101791.92
2018-10-12T06:23:46.443Z,101791.08
2018-10-12T06:26:14.610Z,101800.76
2018-10-12T06:28:42.344Z,101812.63
2018-10-12T06:31:10.643Z,101819.22
2018-10-12T06:33:38.298Z,101815.77
2018-10-12T06:36:06.017Z,101823.21
2018-10-12T06:38:33.765Z,101818.39
2018-10-12T06:41:01.553Z,101820.58
2018-10-12T06:43:29.091Z,101816.63
2018-10-12T06:45:56.743Z,101821.06
2018-10-12T06:48:24.425Z,101823.21
2018-10-12T06:50:52.090Z,101820.58
2018-10-12T06:53:19.732Z,101827.63
2018-10-12T06:55:47.357Z,101828.06
2018-10-12T06:58:14.980Z,101821.95
2018-10-12T07:00:42.781Z,101826.74
2018-10-12T07:03:10.388Z,101832.91
2018-10-12T07:05:38.120Z,101836.44
2018-10-12T07:08:05.832Z,101847.76
2018-10-12T07:10:33.556Z,101839.39
2018-10-12T07:13:01.286Z,101847.72
2018-10-12T07:15:28.845Z,101845.95
2018-10-12T07:17:56.573Z,101843.79
2018-10-12T07:20:24.254Z,101852.53
2018-10-12T07:22:51.867Z,101859.13
2018-10-12T07:25:19.544Z,101861.77
2018-10-12T07:27:47.591Z,101875.81
2018-10-12T07:30:15.198Z,101874.45
2018-10-12T07:32:42.846Z,101877.50
2018-10-12T07:35:10.528Z,101877.50
2018-10-12T07:37:39.006Z,101879.65
2018-10-12T07:40:08.707Z,101881.41
2018-10-12T07:42:36.395Z,101880.52
2018-10-12T07:45:04.020Z,101891.05
2018-10-12T07:47:31.847Z,101895.40
2018-10-12T07:49:59.503Z,101898.03
2018-10-12T07:52:27.106Z,101907.66
2018-10-12T07:54:54.785Z,101912.91
2018-10-12T07:57:26.874Z,101915.50
2018-10-12T07:59:54.524Z,101919.44
2018-10-12T08:02:22.219Z,101925.53
2018-10-12T08:04:49.906Z,101926.83
2018-10-12T08:07:17.533Z,101930.78
2018-10-12T08:09:46.143Z,101939.95
2018-10-12T08:12:13.784Z,101943.92
2018-10-12T08:14:54.739Z,101951.75
2018-10-12T08:17:22.841Z,101949.57
2018-10-12T08:19:50.889Z,101952.62
2018-10-12T08:22:18.573Z,101954.35
2018-10-12T08:24:46.213Z,101962.21
2018-10-12T08:27:13.889Z,101965.66
2018-10-12T08:29:41.552Z,101968.70
2018-10-12T08:32:09.352Z,101964.32
2018-10-12T08:34:37.029Z,101968.69
2018-10-12T08:37:04.675Z,101971.30
2018-10-12T08:39:32.380Z,101970.87
2018-10-12T08:42:00.014Z,101969.50
2018-10-12T08:44:27.830Z,101974.73
2018-10-12T08:46:55.441Z,101977.34
2018-10-12T08:49:23.029Z,101976.86
2018-10-12T08:51:50.624Z,101970.23
2018-10-12T08:54:18.212Z,101973.28
2018-10-12T08:56:45.920Z,101981.16
2018-10-12T08:59:13.572Z,101982.48
2018-10-12T09:01:41.241Z,101990.37
2018-10-12T09:04:08.881Z,101986.83
2018-10-12T09:06:36.577Z,101988.55
2018-10-12T09:09:07.140Z,101993.79
2018-10-12T09:11:34.771Z,102002.11
2018-10-12T09:14:02.472Z,102007.83
2018-10-12T09:16:30.178Z,102006.52
2018-10-12T09:18:57.781Z,102009.54
2018-10-12T09:21:25.429Z,102009.08
2018-10-12T09:23:53.051Z,102007.73
2018-10-12T09:26:20.645Z,102009.94
2018-10-12T09:28:48.363Z,102017.36
2018-10-12T09:31:15.999Z,102016.43
2018-10-12T09:33:43.583Z,102019.95
2018-10-12T09:36:11.250Z,102022.59
2018-10-12T09:38:38.845Z,102014.66
2018-10-12T09:41:06.480Z,102017.27
2018-10-12T09:43:34.111Z,102012.42
2018-10-12T09:46:01.765Z,102014.56
2018-10-12T09:48:29.388Z,102017.18
2018-10-12T09:50:57.039Z,102015.42
2018-10-12T09:53:24.724Z,102013.19
2018-10-12T09:55:52.365Z,102020.60
2018-10-12T09:58:20.079Z,102018.85
2018-10-12T10:00:53.322Z,102016.20
2018-10-12T10:05:28.582Z,102008.70
2018-10-12T10:07:56.297Z,102010.45
2018-10-12T10:10:23.923Z,102010.86
2018-10-12T10:12:51.449Z,102015.24
2018-10-12T10:15:19.172Z,102015.19
2018-10-12T10:17:46.797Z,102019.13
2018-10-12T10:20:14.453Z,102021.73
2018-10-12T10:22:42.176Z,102020.83
2018-10-12T10:25:09.914Z,102022.98
2018-10-12T10:27:37.480Z,102018.12
2018-10-12T10:30:05.345Z,102012.36
2018-10-12T10:32:32.830Z,102011.52
2018-10-12T10:35:00.442Z,102026.84
2018-10-12T10:37:28.144Z,102023.30
2018-10-12T10:39:55.725Z,102020.20
2018-10-12T10:42:23.341Z,102012.72
2018-10-12T10:44:51.054Z,102013.13
2018-10-12T10:47:18.624Z,102016.63
2018-10-12T10:49:46.248Z,102018.79
2018-10-12T10:52:13.905Z,102021.38
2018-10-12T10:54:41.602Z,102030.59
2018-10-12T10:57:09.251Z,102018.70
2018-10-12T10:59:36.831Z,102013.42
2018-10-12T11:02:04.514Z,102018.20
2018-10-12T11:04:32.744Z,102017.28
2018-10-12T11:07:01.406Z,102018.57
2018-10-12T11:09:29.122Z,102014.59
2018-10-12T11:11:56.843Z,102015.45
2018-10-12T11:14:24.511Z,102022.87
2018-10-12T11:16:52.213Z,102026.34
2018-10-12T11:19:19.961Z,102018.88
2018-10-12T11:21:47.688Z,102017.05
2018-10-12T11:24:15.321Z,102012.20
2018-10-12T11:26:42.996Z,102007.36
2018-10-12T11:29:10.664Z,102006.05
2018-10-12T11:31:38.248Z,102013.03
2018-10-12T11:34:06.068Z,102012.13
2018-10-12T11:36:33.716Z,102013.00
2018-10-12T11:39:01.356Z,102012.09
2018-10-12T11:41:29.032Z,102003.69
2018-10-12T11:43:56.587Z,101997.95
2018-10-12T11:46:24.185Z,101999.24
2018-10-12T11:48:51.826Z,101995.20
2018-10-12T11:51:19.437Z,101987.70
2018-10-12T11:53:47.084Z,101988.96
2018-10-12T11:56:14.761Z,101992.89
2018-10-12T11:58:42.345Z,101992.89
2018-10-12T12:01:10.072Z,101993.78
2018-10-12T12:03:37.637Z,101998.17
2018-10-12T12:06:05.238Z,101998.17
2018-10-12T12:08:32.929Z,102008.67
2018-10-12T12:11:00.553Z,102016.11
2018-10-12T12:13:28.193Z,102005.00
2018-10-12T12:15:55.890Z,102009.31
2018-10-12T12:18:23.580Z,102011.11
2018-10-12T12:20:51.218Z,102015.06
2018-10-12T12:23:18.824Z,102017.27
2018-10-12T12:25:46.468Z,102011.55
2018-10-12T12:28:14.201Z,102017.27
2018-10-12T12:30:41.797Z,102016.85
2018-10-12T12:33:09.597Z,102019.92
2018-10-12T12:35:37.634Z,102015.53
2018-10-12T12:38:05.127Z,102013.75
2018-10-12T12:40:32.682Z,102015.86
2018-10-12T12:43:00.282Z,102016.25
